sensor_id;sensor_type;location;lat;lon;timestamp;temperature;humidity
1377;DHT22;682;52.502;13.488;2023-09-19T00:00:17;18.90;1.00
1377;DHT22;682;52.502;13.488;2023-09-19T00:02:45;18.90;1.00
1377;DHT22;682;52.502;13.488;2023-09-19T00:05:12;18.90;1.00
1377;DHT22;682;52.502;13.488;2023-09-19T00:07:39;18.80;1.00
1377;DHT22;682;52.502;13.488;2023-09-19T00:10:07;18.80;1.00
1377;DHT22;682;52.502;13.488;2023-09-19T00:12:35;18.80;1.00
1377;DHT22;682;52.502;13.488;2023-09-19T00:15:04;18.80;1.00
1377;DHT22;682;52.502;13.488;2023-09-19T00:17:32;18.70;1.00
1377;DHT22;682;52.502;13.488;2023-09-19T00:20:00;18.70;1.00
1377;DHT22;682;52.502;13.488;2023-09-19T00:22:40;18.60;1.00
1377;DHT22;682;52.502;13.488;2023-09-19T00:25:07;18.70;1.00
1377;DHT22;682;52.502;13.488;2023-09-19T00:27:36;18.60;1.00
1377;DHT22;682;52.502;13.488;2023-09-19T00:30:09;18.60;1.00
1377;DHT22;682;52.502;13.488;2023-09-19T00:32:40;18.60;1.00
1377;DHT22;682;52.502;13.488;2023-09-19T00:35:08;18.60;1.00
1377;DHT22;682;52.502;13.488;2023-09-19T00:37:36;18.50;1.00
1377;DHT22;682;52.502;13.488;2023-09-19T00:40:03;18.50;1.00
1377;DHT22;682;52.502;13.488;2023-09-19T00:42:31;18.50;1.00
1377;DHT22;682;52.502;13.488;2023-09-19T00:44:59;18.50;1.00
1377;DHT22;682;52.502;13.488;2023-09-19T00:47:30;18.40;1.00
1377;DHT22;682;52.502;13.488;2023-09-19T00:49:57;18.40;1.00
1377;DHT22;682;52.502;13.488;2023-09-19T00:52:25;18.40;1.00
1377;DHT22;682;52.502;13.488;2023-09-19T00:54:52;18.30;1.00
1377;DHT22;682;52.502;13.488;2023-09-19T00:57:19;18.40;1.00
1377;DHT22;682;52.502;13.488;2023-09-19T00:59:49;18.40;1.00
1377;DHT22;682;52.502;13.488;2023-09-19T01:02:17;18.40;1.00
1377;DHT22;682;52.502;13.488;2023-09-19T01:04:45;18.30;1.00
1377;DHT22;682;52.502;13.488;2023-09-19T01:07:12;18.30;1.00
1377;DHT22;682;52.502;13.488;2023-09-19T01:09:40;18.40;1.00
1377;DHT22;682;52.502;13.488;2023-09-19T01:12:08;18.40;1.00
1377;DHT22;682;52.502;13.488;2023-09-19T01:14:43;18.40;1.00
1377;DHT22;682;52.502;13.488;2023-09-19T01:17:20;18.30;1.00
1377;DHT22;682;52.502;13.488;2023-09-19T01:20:16;18.30;1.00
1377;DHT22;682;52.502;13.488;2023-09-19T01:22:53;18.30;1.00
1377;DHT22;682;52.502;13.488;2023-09-19T01:25:41;18.30;1.00
1377;DHT22;682;52.502;13.488;2023-09-19T01:28:29;18.30;1.00
1377;DHT22;682;52.502;13.488;2023-09-19T01:31:02;18.30;1.00
1377;DHT22;682;52.502;13.488;2023-09-19T01:33:54;18.30;1.00
1377;DHT22;682;52.502;13.488;2023-09-19T01:36:26;18.40;1.00
1377;DHT22;682;52.502;13.488;2023-09-19T01:38:53;18.40;1.00
1377;DHT22;682;52.502;13.488;2023-09-19T01:41:33;18.40;1.00
1377;DHT22;682;52.502;13.488;2023-09-19T01:44:09;18.40;1.00
1377;DHT22;682;52.502;13.488;2023-09-19T01:46:41;18.40;1.00
1377;DHT22;682;52.502;13.488;2023-09-19T01:49:18;18.40;1.00
1377;DHT22;682;52.502;13.488;2023-09-19T01:51:55;18.40;1.00
1377;DHT22;682;52.502;13.488;2023-09-19T01:54:27;18.50;1.00
1377;DHT22;682;52.502;13.488;2023-09-19T01:57:01;18.50;1.00
1377;DHT22;682;52.502;13.488;2023-09-19T01:59:35;18.50;1.00
1377;DHT22;682;52.502;13.488;2023-09-19T02:02:06;18.60;1.00
1377;DHT22;682;52.502;13.488;2023-09-19T02:04:34;18.50;1.00
1377;DHT22;682;52.502;13.488;2023-09-19T02:07:02;18.50;1.00
1377;DHT22;682;52.502;13.488;2023-09-19T02:09:31;18.50;1.00
1377;DHT22;682;52.502;13.488;2023-09-19T02:12:00;18.50;1.00
1377;DHT22;682;52.502;13.488;2023-09-19T02:14:29;18.40;1.00
1377;DHT22;682;52.502;13.488;2023-09-19T02:16:57;18.40;1.00
1377;DHT22;682;52.502;13.488;2023-09-19T02:19:26;18.30;1.00
1377;DHT22;682;52.502;13.488;2023-09-19T02:21:53;18.20;1.00
1377;DHT22;682;52.502;13.488;2023-09-19T02:24:20;18.20;1.00
1377;DHT22;682;52.502;13.488;2023-09-19T02:26:47;18.20;1.00
1377;DHT22;682;52.502;13.488;2023-09-19T02:29:14;18.20;1.00
1377;DHT22;682;52.502;13.488;2023-09-19T02:31:41;18.20;1.00
1377;DHT22;682;52.502;13.488;2023-09-19T02:34:11;18.20;1.00
1377;DHT22;682;52.502;13.488;2023-09-19T02:36:39;18.20;1.00
1377;DHT22;682;52.502;13.488;2023-09-19T02:39:06;18.20;1.00
1377;DHT22;682;52.502;13.488;2023-09-19T02:41:34;18.10;1.00
1377;DHT22;682;52.502;13.488;2023-09-19T02:44:01;18.10;1.00
1377;DHT22;682;52.502;13.488;2023-09-19T02:46:28;18.10;1.00
1377;DHT22;682;52.502;13.488;2023-09-19T02:48:55;18.10;1.00
1377;DHT22;682;52.502;13.488;2023-09-19T02:51:22;18.10;1.00
1377;DHT22;682;52.502;13.488;2023-09-19T02:53:51;18.10;1.00
1377;DHT22;682;52.502;13.488;2023-09-19T02:56:20;18.10;1.00
1377;DHT22;682;52.502;13.488;2023-09-19T02:58:48;18.10;1.00
1377;DHT22;682;52.502;13.488;2023-09-19T03:01:15;18.10;1.00
1377;DHT22;682;52.502;13.488;2023-09-19T03:03:44;18.00;1.00
1377;DHT22;682;52.502;13.488;2023-09-19T03:06:11;18.10;1.00
1377;DHT22;682;52.502;13.488;2023-09-19T03:08:39;18.00;1.00
1377;DHT22;682;52.502;13.488;2023-09-19T03:11:25;18.00;1.00
1377;DHT22;682;52.502;13.488;2023-09-19T03:13:52;18.00;1.00
1377;DHT22;682;52.502;13.488;2023-09-19T03:16:19;18.10;1.00
1377;DHT22;682;52.502;13.488;2023-09-19T03:18:47;18.10;1.00
1377;DHT22;682;52.502;13.488;2023-09-19T03:21:14;18.10;1.00
1377;DHT22;682;52.502;13.488;2023-09-19T03:26:41;18.10;1.00
1377;DHT22;682;52.502;13.488;2023-09-19T03:29:08;18.10;1.00
1377;DHT22;682;52.502;13.488;2023-09-19T03:31:36;18.20;1.00
1377;DHT22;682;52.502;13.488;2023-09-19T03:34:03;18.20;1.00
1377;DHT22;682;52.502;13.488;2023-09-19T03:36:30;18.20;1.00
1377;DHT22;682;52.502;13.488;2023-09-19T03:39:11;18.20;1.00
1377;DHT22;682;52.502;13.488;2023-09-19T03:41:42;18.20;1.00
1377;DHT22;682;52.502;13.488;2023-09-19T03:44:08;18.20;1.00
1377;DHT22;682;52.502;13.488;2023-09-19T03:46:36;18.20;1.00
1377;DHT22;682;52.502;13.488;2023-09-19T03:49:03;18.20;1.00
1377;DHT22;682;52.502;13.488;2023-09-19T03:51:30;18.20;1.00
1377;DHT22;682;52.502;13.488;2023-09-19T03:53:57;18.20;1.00
1377;DHT22;682;52.502;13.488;2023-09-19T03:56:23;18.20;1.00
1377;DHT22;682;52.502;13.488;2023-09-19T03:58:52;18.20;1.00
1377;DHT22;682;52.502;13.488;2023-09-19T04:01:19;18.20;1.00
1377;DHT22;682;52.502;13.488;2023-09-19T04:03:46;18.20;1.00
1377;DHT22;682;52.502;13.488;2023-09-19T04:06:13;18.10;1.00
1377;DHT22;682;52.502;13.488;2023-09-19T04:08:40;18.10;1.00
1377;DHT22;682;52.502;13.488;2023-09-19T04:11:07;18.10;1.00
1377;DHT22;682;52.502;13.488;2023-09-19T04:13:34;18.00;1.00
1377;DHT22;682;52.502;13.488;2023-09-19T04:16:03;18.00;1.00
1377;DHT22;682;52.502;13.488;2023-09-19T04:18:30;18.00;1.00
1377;DHT22;682;52.502;13.488;2023-09-19T04:20:59;18.00;1.00
1377;DHT22;682;52.502;13.488;2023-09-19T04:23:28;18.00;1.00
1377;DHT22;682;52.502;13.488;2023-09-19T04:25:55;18.00;1.00
1377;DHT22;682;52.502;13.488;2023-09-19T04:28:22;17.90;1.00
1377;DHT22;682;52.502;13.488;2023-09-19T04:30:49;17.90;1.00
1377;DHT22;682;52.502;13.488;2023-09-19T04:33:18;18.00;1.00
1377;DHT22;682;52.502;13.488;2023-09-19T04:35:44;17.90;1.00
1377;DHT22;682;52.502;13.488;2023-09-19T04:38:12;18.00;1.00
1377;DHT22;682;52.502;13.488;2023-09-19T04:40:40;18.00;1.00
1377;DHT22;682;52.502;13.488;2023-09-19T04:43:07;18.00;1.00
1377;DHT22;682;52.502;13.488;2023-09-19T04:45:34;18.00;1.00
1377;DHT22;682;52.502;13.488;2023-09-19T04:48:01;18.00;1.00
1377;DHT22;682;52.502;13.488;2023-09-19T04:50:30;18.00;1.00
1377;DHT22;682;52.502;13.488;2023-09-19T04:52:57;18.00;1.00
1377;DHT22;682;52.502;13.488;2023-09-19T04:55:24;18.00;1.00
1377;DHT22;682;52.502;13.488;2023-09-19T04:57:52;18.00;1.00
1377;DHT22;682;52.502;13.488;2023-09-19T05:00:20;17.90;1.00
1377;DHT22;682;52.502;13.488;2023-09-19T05:02:50;17.90;1.00
1377;DHT22;682;52.502;13.488;2023-09-19T05:05:19;18.00;1.00
1377;DHT22;682;52.502;13.488;2023-09-19T05:07:49;17.90;1.00
1377;DHT22;682;52.502;13.488;2023-09-19T05:10:16;17.90;1.00
1377;DHT22;682;52.502;13.488;2023-09-19T05:12:44;17.90;1.00
1377;DHT22;682;52.502;13.488;2023-09-19T05:15:13;17.90;1.00
1377;DHT22;682;52.502;13.488;2023-09-19T05:17:47;17.80;1.00
1377;DHT22;682;52.502;13.488;2023-09-19T05:20:15;17.80;1.00
1377;DHT22;682;52.502;13.488;2023-09-19T05:22:57;17.80;1.00
1377;DHT22;682;52.502;13.488;2023-09-19T05:25:26;17.80;1.00
1377;DHT22;682;52.502;13.488;2023-09-19T05:27:55;17.80;1.00
1377;DHT22;682;52.502;13.488;2023-09-19T05:30:23;17.70;1.00
1377;DHT22;682;52.502;13.488;2023-09-19T05:32:50;17.80;1.00
1377;DHT22;682;52.502;13.488;2023-09-19T05:35:18;17.70;1.00
1377;DHT22;682;52.502;13.488;2023-09-19T05:37:47;17.70;1.00
1377;DHT22;682;52.502;13.488;2023-09-19T05:40:16;17.70;1.00
1377;DHT22;682;52.502;13.488;2023-09-19T05:42:43;17.70;1.00
1377;DHT22;682;52.502;13.488;2023-09-19T05:45:10;17.70;1.00
1377;DHT22;682;52.502;13.488;2023-09-19T05:47:38;17.70;1.00
1377;DHT22;682;52.502;13.488;2023-09-19T05:50:07;17.70;1.00
1377;DHT22;682;52.502;13.488;2023-09-19T05:52:35;17.70;1.00
1377;DHT22;682;52.502;13.488;2023-09-19T05:55:03;17.80;1.00
1377;DHT22;682;52.502;13.488;2023-09-19T05:57:32;17.80;1.00
1377;DHT22;682;52.502;13.488;2023-09-19T05:59:59;17.80;1.00
1377;DHT22;682;52.502;13.488;2023-09-19T06:02:26;17.80;1.00
1377;DHT22;682;52.502;13.488;2023-09-19T06:04:55;17.80;1.00
1377;DHT22;682;52.502;13.488;2023-09-19T06:07:22;17.80;1.00
1377;DHT22;682;52.502;13.488;2023-09-19T06:09:51;17.80;1.00
1377;DHT22;682;52.502;13.488;2023-09-19T06:12:19;17.90;1.00
1377;DHT22;682;52.502;13.488;2023-09-19T06:14:47;17.80;1.00
1377;DHT22;682;52.502;13.488;2023-09-19T06:17:15;17.80;1.00
1377;DHT22;682;52.502;13.488;2023-09-19T06:19:42;17.80;1.00
1377;DHT22;682;52.502;13.488;2023-09-19T06:22:15;17.80;1.00
1377;DHT22;682;52.502;13.488;2023-09-19T06:24:43;17.80;1.00
1377;DHT22;682;52.502;13.488;2023-09-19T06:27:10;17.80;1.00
1377;DHT22;682;52.502;13.488;2023-09-19T06:29:37;17.80;1.00
1377;DHT22;682;52.502;13.488;2023-09-19T06:32:08;17.90;1.00
1377;DHT22;682;52.502;13.488;2023-09-19T06:34:38;17.90;1.00
1377;DHT22;682;52.502;13.488;2023-09-19T06:37:08;17.90;1.00
1377;DHT22;682;52.502;13.488;2023-09-19T06:39:35;17.90;1.00
1377;DHT22;682;52.502;13.488;2023-09-19T06:42:03;17.90;1.00
1377;DHT22;682;52.502;13.488;2023-09-19T06:44:31;18.00;1.00
1377;DHT22;682;52.502;13.488;2023-09-19T06:46:58;18.00;1.00
1377;DHT22;682;52.502;13.488;2023-09-19T06:49:26;18.10;1.00
1377;DHT22;682;52.502;13.488;2023-09-19T06:51:55;18.10;1.00
1377;DHT22;682;52.502;13.488;2023-09-19T06:54:23;18.20;1.00
1377;DHT22;682;52.502;13.488;2023-09-19T06:56:49;18.30;1.00
1377;DHT22;682;52.502;13.488;2023-09-19T07:01:52;18.40;1.00
1377;DHT22;682;52.502;13.488;2023-09-19T07:04:19;18.50;1.00
1377;DHT22;682;52.502;13.488;2023-09-19T07:06:51;18.60;1.00
1377;DHT22;682;52.502;13.488;2023-09-19T07:09:18;18.70;1.00
1377;DHT22;682;52.502;13.488;2023-09-19T07:11:48;18.90;1.00
1377;DHT22;682;52.502;13.488;2023-09-19T07:14:16;19.10;1.00
1377;DHT22;682;52.502;13.488;2023-09-19T07:16:43;19.30;1.00
1377;DHT22;682;52.502;13.488;2023-09-19T07:19:11;19.60;1.00
1377;DHT22;682;52.502;13.488;2023-09-19T07:21:40;19.90;1.00
1377;DHT22;682;52.502;13.488;2023-09-19T07:24:09;20.20;1.00
1377;DHT22;682;52.502;13.488;2023-09-19T07:26:36;20.30;1.00
1377;DHT22;682;52.502;13.488;2023-09-19T07:29:05;20.20;1.00
1377;DHT22;682;52.502;13.488;2023-09-19T07:31:34;20.20;1.00
1377;DHT22;682;52.502;13.488;2023-09-19T07:34:01;20.20;1.00
1377;DHT22;682;52.502;13.488;2023-09-19T07:36:29;20.10;1.00
1377;DHT22;682;52.502;13.488;2023-09-19T07:38:59;20.10;1.00
1377;DHT22;682;52.502;13.488;2023-09-19T07:41:27;20.10;1.00
1377;DHT22;682;52.502;13.488;2023-09-19T07:43:56;20.20;1.00
1377;DHT22;682;52.502;13.488;2023-09-19T07:46:23;20.40;1.00
1377;DHT22;682;52.502;13.488;2023-09-19T07:48:50;20.30;1.00
1377;DHT22;682;52.502;13.488;2023-09-19T07:51:17;20.30;1.00
1377;DHT22;682;52.502;13.488;2023-09-19T07:53:45;20.10;1.00
1377;DHT22;682;52.502;13.488;2023-09-19T07:56:13;20.10;1.00
1377;DHT22;682;52.502;13.488;2023-09-19T07:58:42;20.00;1.00
1377;DHT22;682;52.502;13.488;2023-09-19T08:01:10;20.00;1.00
1377;DHT22;682;52.502;13.488;2023-09-19T08:03:38;20.10;1.00
1377;DHT22;682;52.502;13.488;2023-09-19T08:06:06;20.20;1.00
1377;DHT22;682;52.502;13.488;2023-09-19T08:08:34;20.30;1.00
1377;DHT22;682;52.502;13.488;2023-09-19T08:11:03;20.60;1.00
1377;DHT22;682;52.502;13.488;2023-09-19T08:13:36;20.80;1.00
1377;DHT22;682;52.502;13.488;2023-09-19T08:16:10;21.00;1.00
1377;DHT22;682;52.502;13.488;2023-09-19T08:18:37;20.80;1.00
1377;DHT22;682;52.502;13.488;2023-09-19T08:21:05;20.80;1.00
1377;DHT22;682;52.502;13.488;2023-09-19T08:23:33;21.00;1.00
1377;DHT22;682;52.502;13.488;2023-09-19T08:26:00;21.00;1.00
1377;DHT22;682;52.502;13.488;2023-09-19T08:28:32;21.20;1.00
1377;DHT22;682;52.502;13.488;2023-09-19T08:31:02;21.00;1.00
1377;DHT22;682;52.502;13.488;2023-09-19T08:33:34;20.70;1.00
1377;DHT22;682;52.502;13.488;2023-09-19T08:36:01;20.40;1.00
1377;DHT22;682;52.502;13.488;2023-09-19T08:38:31;20.20;1.00
1377;DHT22;682;52.502;13.488;2023-09-19T08:40:59;20.10;1.00
1377;DHT22;682;52.502;13.488;2023-09-19T08:43:27;20.10;1.00
1377;DHT22;682;52.502;13.488;2023-09-19T08:46:03;20.10;1.00
1377;DHT22;682;52.502;13.488;2023-09-19T08:48:39;20.10;1.00
1377;DHT22;682;52.502;13.488;2023-09-19T08:51:16;20.20;1.00
1377;DHT22;682;52.502;13.488;2023-09-19T08:53:51;20.20;1.00
1377;DHT22;682;52.502;13.488;2023-09-19T08:56:18;20.20;1.00
1377;DHT22;682;52.502;13.488;2023-09-19T08:58:51;20.40;1.00
1377;DHT22;682;52.502;13.488;2023-09-19T09:01:20;20.70;1.00
1377;DHT22;682;52.502;13.488;2023-09-19T09:03:53;21.10;1.00
1377;DHT22;682;52.502;13.488;2023-09-19T09:06:21;21.40;1.00
1377;DHT22;682;52.502;13.488;2023-09-19T09:08:50;21.70;1.00
1377;DHT22;682;52.502;13.488;2023-09-19T09:11:18;22.10;1.00
1377;DHT22;682;52.502;13.488;2023-09-19T09:13:46;22.90;1.00
1377;DHT22;682;52.502;13.488;2023-09-19T09:16:13;23.70;1.00
1377;DHT22;682;52.502;13.488;2023-09-19T09:18:44;24.30;1.00
1377;DHT22;682;52.502;13.488;2023-09-19T09:21:13;24.90;1.00
1377;DHT22;682;52.502;13.488;2023-09-19T09:23:41;25.50;1.00
1377;DHT22;682;52.502;13.488;2023-09-19T09:26:08;25.80;1.00
1377;DHT22;682;52.502;13.488;2023-09-19T09:28:35;26.50;1.00
1377;DHT22;682;52.502;13.488;2023-09-19T09:31:05;27.10;1.00
1377;DHT22;682;52.502;13.488;2023-09-19T09:33:35;27.70;1.00
1377;DHT22;682;52.502;13.488;2023-09-19T09:36:03;28.70;1.00
1377;DHT22;682;52.502;13.488;2023-09-19T09:38:45;29.40;1.00
1377;DHT22;682;52.502;13.488;2023-09-19T09:41:15;29.40;1.00
1377;DHT22;682;52.502;13.488;2023-09-19T09:43:53;28.50;1.00
1377;DHT22;682;52.502;13.488;2023-09-19T09:46:22;28.20;1.00
1377;DHT22;682;52.502;13.488;2023-09-19T09:49:24;28.90;1.00
1377;DHT22;682;52.502;13.488;2023-09-19T09:52:01;29.80;1.00
1377;DHT22;682;52.502;13.488;2023-09-19T09:54:33;30.10;1.00
1377;DHT22;682;52.502;13.488;2023-09-19T09:57:09;31.00;1.00
1377;DHT22;682;52.502;13.488;2023-09-19T09:59:49;31.50;1.00
1377;DHT22;682;52.502;13.488;2023-09-19T10:02:18;31.00;1.00
1377;DHT22;682;52.502;13.488;2023-09-19T10:04:55;30.70;1.00
1377;DHT22;682;52.502;13.488;2023-09-19T10:07:35;30.80;1.00
1377;DHT22;682;52.502;13.488;2023-09-19T10:10:08;31.20;1.00
1377;DHT22;682;52.502;13.488;2023-09-19T10:12:45;30.90;1.00
1377;DHT22;682;52.502;13.488;2023-09-19T10:15:16;30.10;1.00
1377;DHT22;682;52.502;13.488;2023-09-19T10:17:46;30.00;1.00
1377;DHT22;682;52.502;13.488;2023-09-19T10:20:14;30.40;1.00
1377;DHT22;682;52.502;13.488;2023-09-19T10:22:50;30.60;1.00
1377;DHT22;682;52.502;13.488;2023-09-19T10:25:28;31.10;1.00
1377;DHT22;682;52.502;13.488;2023-09-19T10:27:57;31.10;1.00
1377;DHT22;682;52.502;13.488;2023-09-19T10:30:31;31.20;1.00
1377;DHT22;682;52.502;13.488;2023-09-19T10:33:04;31.60;1.00
1377;DHT22;682;52.502;13.488;2023-09-19T10:35:32;31.80;1.00
1377;DHT22;682;52.502;13.488;2023-09-19T10:38:00;31.80;1.00
1377;DHT22;682;52.502;13.488;2023-09-19T10:40:30;32.30;1.00
1377;DHT22;682;52.502;13.488;2023-09-19T10:43:01;33.10;1.00
1377;DHT22;682;52.502;13.488;2023-09-19T10:45:33;33.40;1.00
1377;DHT22;682;52.502;13.488;2023-09-19T10:48:01;33.60;1.00
1377;DHT22;682;52.502;13.488;2023-09-19T10:50:35;33.80;1.00
1377;DHT22;682;52.502;13.488;2023-09-19T10:53:04;34.60;1.00
1377;DHT22;682;52.502;13.488;2023-09-19T10:55:35;34.10;1.00
1377;DHT22;682;52.502;13.488;2023-09-19T10:58:04;33.60;1.00
1377;DHT22;682;52.502;13.488;2023-09-19T11:00:53;31.70;1.00
1377;DHT22;682;52.502;13.488;2023-09-19T11:03:22;31.00;1.00
1377;DHT22;682;52.502;13.488;2023-09-19T11:06:07;31.20;1.00
1377;DHT22;682;52.502;13.488;2023-09-19T11:09:09;31.60;1.00
1377;DHT22;682;52.502;13.488;2023-09-19T11:11:50;31.60;1.00
1377;DHT22;682;52.502;13.488;2023-09-19T11:14:45;31.30;1.00
1377;DHT22;682;52.502;13.488;2023-09-19T11:17:42;30.50;1.00
1377;DHT22;682;52.502;13.488;2023-09-19T11:20:21;29.80;1.00
1377;DHT22;682;52.502;13.488;2023-09-19T11:23:19;29.90;1.00
1377;DHT22;682;52.502;13.488;2023-09-19T11:25:52;30.40;1.00
1377;DHT22;682;52.502;13.488;2023-09-19T11:28:31;30.70;1.00
1377;DHT22;682;52.502;13.488;2023-09-19T11:30:59;30.10;1.00
1377;DHT22;682;52.502;13.488;2023-09-19T11:33:46;30.20;1.00
1377;DHT22;682;52.502;13.488;2023-09-19T11:36:15;30.70;1.00
1377;DHT22;682;52.502;13.488;2023-09-19T11:38:58;31.20;1.00
1377;DHT22;682;52.502;13.488;2023-09-19T11:41:39;31.50;1.00
1377;DHT22;682;52.502;13.488;2023-09-19T11:44:33;30.50;1.00
1377;DHT22;682;52.502;13.488;2023-09-19T11:47:05;29.40;1.00
1377;DHT22;682;52.502;13.488;2023-09-19T11:49:33;28.20;1.00
1377;DHT22;682;52.502;13.488;2023-09-19T11:52:03;27.10;1.00
1377;DHT22;682;52.502;13.488;2023-09-19T11:54:35;26.40;1.00
1377;DHT22;682;52.502;13.488;2023-09-19T11:57:06;26.70;1.00
1377;DHT22;682;52.502;13.488;2023-09-19T11:59:38;26.30;1.00
1377;DHT22;682;52.502;13.488;2023-09-19T12:02:07;26.20;1.00
1377;DHT22;682;52.502;13.488;2023-09-19T12:04:35;26.90;1.00
1377;DHT22;682;52.502;13.488;2023-09-19T12:07:06;27.60;1.00
1377;DHT22;682;52.502;13.488;2023-09-19T12:09:39;27.90;1.00
1377;DHT22;682;52.502;13.488;2023-09-19T12:12:10;27.90;1.00
1377;DHT22;682;52.502;13.488;2023-09-19T12:14:47;28.00;1.00
1377;DHT22;682;52.502;13.488;2023-09-19T12:17:14;28.20;1.00
1377;DHT22;682;52.502;13.488;2023-09-19T12:19:50;28.20;1.00
1377;DHT22;682;52.502;13.488;2023-09-19T12:22:18;28.10;1.00
1377;DHT22;682;52.502;13.488;2023-09-19T12:24:46;27.70;1.00
1377;DHT22;682;52.502;13.488;2023-09-19T12:27:14;27.70;1.00
1377;DHT22;682;52.502;13.488;2023-09-19T12:29:46;28.00;1.00
1377;DHT22;682;52.502;13.488;2023-09-19T12:32:14;27.90;1.00
1377;DHT22;682;52.502;13.488;2023-09-19T12:34:50;27.90;1.00
1377;DHT22;682;52.502;13.488;2023-09-19T12:37:18;27.80;1.00
1377;DHT22;682;52.502;13.488;2023-09-19T12:39:49;27.60;1.00
1377;DHT22;682;52.502;13.488;2023-09-19T12:42:20;27.50;1.00
1377;DHT22;682;52.502;13.488;2023-09-19T12:44:52;27.90;1.00
1377;DHT22;682;52.502;13.488;2023-09-19T12:47:20;28.10;1.00
1377;DHT22;682;52.502;13.488;2023-09-19T12:50:12;28.30;1.00
1377;DHT22;682;52.502;13.488;2023-09-19T12:52:46;28.50;1.00
1377;DHT22;682;52.502;13.488;2023-09-19T12:55:20;28.70;1.00
1377;DHT22;682;52.502;13.488;2023-09-19T12:58:08;28.80;1.00
1377;DHT22;682;52.502;13.488;2023-09-19T13:00:39;28.00;1.00
1377;DHT22;682;52.502;13.488;2023-09-19T13:03:17;27.90;1.00
1377;DHT22;682;52.502;13.488;2023-09-19T13:05:57;27.90;1.00
1377;DHT22;682;52.502;13.488;2023-09-19T13:08:27;27.40;1.00
1377;DHT22;682;52.502;13.488;2023-09-19T13:11:09;26.70;1.00
1377;DHT22;682;52.502;13.488;2023-09-19T13:13:39;26.20;1.00
1377;DHT22;682;52.502;13.488;2023-09-19T13:16:08;26.00;1.00
1377;DHT22;682;52.502;13.488;2023-09-19T13:18:43;25.80;1.00
1377;DHT22;682;52.502;13.488;2023-09-19T13:21:12;25.50;1.00
1377;DHT22;682;52.502;13.488;2023-09-19T13:23:52;25.20;1.00
1377;DHT22;682;52.502;13.488;2023-09-19T13:26:20;24.90;1.00
1377;DHT22;682;52.502;13.488;2023-09-19T13:28:49;24.80;1.00
1377;DHT22;682;52.502;13.488;2023-09-19T13:31:18;24.60;1.00
1377;DHT22;682;52.502;13.488;2023-09-19T13:33:48;24.20;1.00
1377;DHT22;682;52.502;13.488;2023-09-19T13:36:17;24.10;1.00
1377;DHT22;682;52.502;13.488;2023-09-19T13:38:52;23.90;1.00
1377;DHT22;682;52.502;13.488;2023-09-19T13:41:24;23.70;1.00
1377;DHT22;682;52.502;13.488;2023-09-19T13:43:51;23.80;1.00
1377;DHT22;682;52.502;13.488;2023-09-19T13:46:20;23.80;1.00
1377;DHT22;682;52.502;13.488;2023-09-19T13:48:51;23.60;1.00
1377;DHT22;682;52.502;13.488;2023-09-19T13:51:21;23.60;1.00
1377;DHT22;682;52.502;13.488;2023-09-19T13:53:49;23.70;1.00
1377;DHT22;682;52.502;13.488;2023-09-19T13:56:18;23.70;1.00
1377;DHT22;682;52.502;13.488;2023-09-19T13:58:46;23.70;1.00
1377;DHT22;682;52.502;13.488;2023-09-19T14:01:13;23.60;1.00
1377;DHT22;682;52.502;13.488;2023-09-19T14:03:43;23.50;1.00
1377;DHT22;682;52.502;13.488;2023-09-19T14:06:15;23.30;1.00
1377;DHT22;682;52.502;13.488;2023-09-19T14:08:44;23.30;1.00
1377;DHT22;682;52.502;13.488;2023-09-19T14:11:12;23.30;1.00
1377;DHT22;682;52.502;13.488;2023-09-19T14:13:42;23.20;1.00
1377;DHT22;682;52.502;13.488;2023-09-19T14:16:12;23.10;1.00
1377;DHT22;682;52.502;13.488;2023-09-19T14:18:39;23.30;1.00
1377;DHT22;682;52.502;13.488;2023-09-19T14:21:08;23.30;1.00
1377;DHT22;682;52.502;13.488;2023-09-19T14:23:37;23.40;1.00
1377;DHT22;682;52.502;13.488;2023-09-19T14:26:09;23.50;1.00
1377;DHT22;682;52.502;13.488;2023-09-19T14:28:38;23.50;1.00
1377;DHT22;682;52.502;13.488;2023-09-19T14:31:06;23.40;1.00
1377;DHT22;682;52.502;13.488;2023-09-19T14:33:34;23.50;1.00
1377;DHT22;682;52.502;13.488;2023-09-19T14:36:04;23.40;1.00
1377;DHT22;682;52.502;13.488;2023-09-19T14:38:39;23.30;1.00
1377;DHT22;682;52.502;13.488;2023-09-19T14:41:09;23.30;1.00
1377;DHT22;682;52.502;13.488;2023-09-19T14:43:36;23.30;1.00
1377;DHT22;682;52.502;13.488;2023-09-19T14:46:03;23.40;1.00
1377;DHT22;682;52.502;13.488;2023-09-19T14:48:33;23.40;1.00
1377;DHT22;682;52.502;13.488;2023-09-19T14:51:02;23.40;1.00
1377;DHT22;682;52.502;13.488;2023-09-19T14:53:30;23.30;1.00
1377;DHT22;682;52.502;13.488;2023-09-19T14:56:00;23.20;1.00
1377;DHT22;682;52.502;13.488;2023-09-19T14:58:28;22.90;1.00
1377;DHT22;682;52.502;13.488;2023-09-19T15:01:03;22.80;1.00
1377;DHT22;682;52.502;13.488;2023-09-19T15:03:32;22.70;1.00
1377;DHT22;682;52.502;13.488;2023-09-19T15:06:00;22.60;1.00
1377;DHT22;682;52.502;13.488;2023-09-19T15:08:27;22.40;1.00
1377;DHT22;682;52.502;13.488;2023-09-19T15:10:54;22.30;1.00
1377;DHT22;682;52.502;13.488;2023-09-19T15:13:24;22.20;1.00
1377;DHT22;682;52.502;13.488;2023-09-19T15:15:59;22.30;1.00
1377;DHT22;682;52.502;13.488;2023-09-19T15:18:28;22.10;1.00
1377;DHT22;682;52.502;13.488;2023-09-19T15:20:56;22.00;1.00
1377;DHT22;682;52.502;13.488;2023-09-19T15:23:27;22.00;1.00
1377;DHT22;682;52.502;13.488;2023-09-19T15:25:55;22.00;1.00
1377;DHT22;682;52.502;13.488;2023-09-19T15:28:24;22.10;1.00
1377;DHT22;682;52.502;13.488;2023-09-19T15:30:57;22.10;1.00
1377;DHT22;682;52.502;13.488;2023-09-19T15:33:24;22.10;1.00
1377;DHT22;682;52.502;13.488;2023-09-19T15:35:52;22.10;1.00
1377;DHT22;682;52.502;13.488;2023-09-19T15:38:19;22.10;1.00
1377;DHT22;682;52.502;13.488;2023-09-19T15:40:48;22.00;1.00
1377;DHT22;682;52.502;13.488;2023-09-19T15:43:15;22.00;1.00
1377;DHT22;682;52.502;13.488;2023-09-19T15:45:45;22.10;1.00
1377;DHT22;682;52.502;13.488;2023-09-19T15:48:13;22.10;1.00
1377;DHT22;682;52.502;13.488;2023-09-19T15:50:40;22.00;1.00
1377;DHT22;682;52.502;13.488;2023-09-19T15:53:10;22.00;1.00
1377;DHT22;682;52.502;13.488;2023-09-19T15:55:40;22.10;1.00
1377;DHT22;682;52.502;13.488;2023-09-19T15:58:10;22.00;1.00
1377;DHT22;682;52.502;13.488;2023-09-19T16:00:46;21.90;1.00
1377;DHT22;682;52.502;13.488;2023-09-19T16:03:13;21.90;1.00
1377;DHT22;682;52.502;13.488;2023-09-19T16:05:44;22.00;1.00
1377;DHT22;682;52.502;13.488;2023-09-19T16:08:12;22.00;1.00
1377;DHT22;682;52.502;13.488;2023-09-19T16:10:43;22.00;1.00
1377;DHT22;682;52.502;13.488;2023-09-19T16:13:11;21.90;1.00
1377;DHT22;682;52.502;13.488;2023-09-19T16:15:41;21.80;1.00
1377;DHT22;682;52.502;13.488;2023-09-19T16:18:12;21.70;1.00
1377;DHT22;682;52.502;13.488;2023-09-19T16:20:39;21.60;1.00
1377;DHT22;682;52.502;13.488;2023-09-19T16:23:06;21.60;1.00
1377;DHT22;682;52.502;13.488;2023-09-19T16:25:33;21.50;1.00
1377;DHT22;682;52.502;13.488;2023-09-19T16:28:02;21.50;1.00
1377;DHT22;682;52.502;13.488;2023-09-19T16:30:31;21.40;1.00
1377;DHT22;682;52.502;13.488;2023-09-19T16:32:59;21.40;1.00
1377;DHT22;682;52.502;13.488;2023-09-19T16:35:29;21.20;1.00
1377;DHT22;682;52.502;13.488;2023-09-19T16:37:59;21.20;1.00
1377;DHT22;682;52.502;13.488;2023-09-19T16:40:26;21.20;1.00
1377;DHT22;682;52.502;13.488;2023-09-19T16:42:54;21.10;1.00